Enter the Airport ICAO Code

Search by Airport or City

Current Weather

SCDA | Diego Aracena International Airport

Iquique, Chile

Last Update 19 Minutes Ago

Clear Sky

Temperature of 20 ēC

Light to Moderate Winds from South

Temperature

20 ēC

Dew Point Temperature

15 ēC

Relative Humidity

73.07 %

Wind Direction

South (170ē, Without Significant Variations)

Wind Velocity

11 km/h (06 kt)

Gusts

None

Visibility

No Significant Reductions

Sea Level Pressure

1013 hPa (Hectopascals)

Layers of Clouds

None

METAR SCDA 091100Z 17006KT CAVOK 20/15 Q1013

Weather Forecast

SCDA | Diego Aracena International Airport

Iquique, Chile

Forecast valid for the next 25 Hours

In 1 hour it is expected the begining of:

Clear Sky

Light Winds from South

In 3 to 5 hours it is expected the begining of:

Moderate Winds from SouthWest

In 15 to 17 hours it is expected the begining of:

Light Winds from South

Maximum Temperature

25 ēC in 7 Hours

Minimum Temperature

20 ēC in 22 Hours

TAF SCDA 091014Z 0912/1012 19004KT CAVOK TX25/0918Z TN20/1009Z BECMG 0914/0916 23015KT BECMG 1002/1004 18004KT